createdAt,value
2023-03-17T00:02:11.944Z,13.75
2023-03-17T00:04:48.012Z,11.67
2023-03-17T00:07:22.909Z,9.40
2023-03-17T00:09:52.822Z,13.93
2023-03-17T00:12:21.214Z,10.68
2023-03-17T00:14:49.720Z,11.73
2023-03-17T00:17:18.673Z,15.50
2023-03-17T00:19:47.614Z,14.10
2023-03-17T00:22:19.773Z,13.10
2023-03-17T00:24:48.414Z,13.20
2023-03-17T00:27:18.694Z,11.82
2023-03-17T00:29:47.171Z,13.80
2023-03-17T00:32:20.154Z,13.25
2023-03-17T00:34:48.857Z,9.75
2023-03-17T00:37:17.250Z,13.15
2023-03-17T00:39:45.656Z,13.90
2023-03-17T00:42:14.248Z,14.20
2023-03-17T00:44:44.549Z,13.55
2023-03-17T00:47:13.136Z,14.73
2023-03-17T00:49:41.540Z,14.25
2023-03-17T00:52:10.240Z,12.98
2023-03-17T00:54:38.932Z,14.32
2023-03-17T00:57:10.713Z,11.13
2023-03-17T00:59:41.566Z,15.20
2023-03-17T01:02:13.035Z,14.18
2023-03-17T01:04:45.719Z,14.32
2023-03-17T01:07:18.528Z,17.00
2023-03-17T01:09:46.942Z,15.40
2023-03-17T01:12:15.431Z,12.68
2023-03-17T01:14:43.849Z,12.70
2023-03-17T01:17:16.938Z,13.38
2023-03-17T01:19:46.089Z,13.00
2023-03-17T01:22:15.376Z,20.27
2023-03-17T01:24:43.865Z,15.93
2023-03-17T01:27:12.948Z,17.10
2023-03-17T01:29:41.328Z,14.73
2023-03-17T01:32:10.589Z,14.95
2023-03-17T01:34:40.674Z,16.15
2023-03-17T01:37:09.616Z,12.27
2023-03-17T01:39:38.032Z,12.17
2023-03-17T01:42:07.274Z,14.35
2023-03-17T01:44:35.707Z,15.38
2023-03-17T01:47:04.208Z,14.05
2023-03-17T01:49:35.614Z,13.40
2023-03-17T01:52:09.463Z,13.10
2023-03-17T01:54:42.434Z,13.18
2023-03-17T01:57:16.691Z,12.93
2023-03-17T01:59:50.131Z,12.48
2023-03-17T02:02:23.636Z,16.67
2023-03-17T02:04:53.145Z,14.45
2023-03-17T02:07:24.454Z,22.05
2023-03-17T02:09:53.583Z,17.63
2023-03-17T02:12:23.402Z,18.33
2023-03-17T02:17:21.129Z,12.85
2023-03-17T02:19:49.587Z,12.27
2023-03-17T02:22:20.332Z,11.88
2023-03-17T02:24:52.858Z,20.98
2023-03-17T02:27:23.873Z,11.38
2023-03-17T02:29:52.274Z,17.13
2023-03-17T02:32:21.467Z,18.15
2023-03-17T02:34:51.014Z,13.68
2023-03-17T02:37:21.460Z,15.20
2023-03-17T02:39:49.969Z,12.80
2023-03-17T02:42:18.399Z,11.63
2023-03-17T02:44:47.063Z,14.05
2023-03-17T02:47:16.076Z,16.63
2023-03-17T02:49:45.265Z,15.53
2023-03-17T02:52:13.704Z,15.38
2023-03-17T02:54:43.730Z,15.90
2023-03-17T02:57:12.237Z,15.73
2023-03-17T02:59:41.555Z,15.77
2023-03-17T03:02:11.492Z,17.67
2023-03-17T03:04:40.109Z,18.05
2023-03-17T03:07:08.812Z,17.67
2023-03-17T03:09:37.714Z,20.45
2023-03-17T03:12:09.941Z,18.67
2023-03-17T03:14:38.533Z,15.57
2023-03-17T03:17:07.029Z,13.68
2023-03-17T03:19:35.584Z,14.07
2023-03-17T03:22:04.010Z,18.48
2023-03-17T03:24:32.460Z,12.05
2023-03-17T03:27:00.928Z,15.85
2023-03-17T03:29:30.693Z,14.30
2023-03-17T03:34:27.830Z,14.95
2023-03-17T03:36:56.281Z,17.75
2023-03-17T03:39:24.665Z,17.08
2023-03-17T03:41:55.459Z,15.90
2023-03-17T03:44:23.834Z,14.60
2023-03-17T03:46:53.624Z,13.98
2023-03-17T03:51:51.204Z,17.00
2023-03-17T03:54:19.628Z,15.32
2023-03-17T03:56:48.096Z,13.93
2023-03-17T03:59:16.648Z,14.55
2023-03-17T04:01:45.608Z,11.13
2023-03-17T04:04:15.456Z,11.73
2023-03-17T04:09:12.653Z,11.32
2023-03-17T04:11:41.505Z,9.60
2023-03-17T04:14:09.879Z,12.95
2023-03-17T04:16:38.298Z,10.68
2023-03-17T04:19:06.794Z,15.18
2023-03-17T04:21:36.842Z,15.98
2023-03-17T04:24:05.740Z,12.32
2023-03-17T04:26:34.193Z,12.73
2023-03-17T04:29:02.595Z,12.32
2023-03-17T04:31:31.443Z,12.75
2023-03-17T04:33:59.886Z,11.13
2023-03-17T04:36:28.315Z,13.80
2023-03-17T04:38:58.126Z,12.85
2023-03-17T04:43:54.809Z,10.57
2023-03-17T04:46:23.189Z,10.95
2023-03-17T04:48:51.850Z,12.70
2023-03-17T04:51:20.266Z,13.95
2023-03-17T04:53:50.029Z,12.00
2023-03-17T04:58:47.924Z,18.25
2023-03-17T05:01:16.482Z,12.65
2023-03-17T05:03:45.380Z,13.43
2023-03-17T05:06:13.927Z,11.27
2023-03-17T05:08:43.610Z,12.45
2023-03-17T05:11:12.452Z,13.30
2023-03-17T05:13:42.712Z,9.90
2023-03-17T05:16:11.624Z,9.50
2023-03-17T05:18:40.152Z,11.40
2023-03-17T05:21:08.993Z,11.77
2023-03-17T05:23:38.149Z,12.15
2023-03-17T05:26:06.954Z,11.90
2023-03-17T05:28:35.703Z,12.75
2023-03-17T05:31:05.798Z,15.40
2023-03-17T05:33:34.274Z,11.27
2023-03-17T05:36:03.533Z,11.27
2023-03-17T05:38:32.077Z,13.52
2023-03-17T05:41:00.839Z,9.43
2023-03-17T05:43:29.291Z,12.98
2023-03-17T05:45:57.720Z,16.00
2023-03-17T05:48:27.571Z,14.70
2023-03-17T05:53:24.559Z,12.27
2023-03-17T05:55:53.700Z,16.95
2023-03-17T05:58:22.428Z,11.38
2023-03-17T06:00:51.060Z,9.65
2023-03-17T06:03:19.647Z,12.55
2023-03-17T06:05:49.688Z,7.75
2023-03-17T06:08:18.314Z,10.75
2023-03-17T06:10:46.761Z,10.23
2023-03-17T06:13:15.444Z,8.73
2023-03-17T06:15:44.069Z,11.55
2023-03-17T06:18:12.551Z,10.27
2023-03-17T06:20:41.480Z,15.98
2023-03-17T06:23:11.409Z,11.73
2023-03-17T06:25:39.865Z,12.52
2023-03-17T06:28:08.373Z,8.50
2023-03-17T06:30:40.549Z,10.48
2023-03-17T06:33:09.489Z,9.82
2023-03-17T06:35:38.225Z,11.95
2023-03-17T06:38:06.861Z,7.57
2023-03-17T06:40:37.079Z,14.75
2023-03-17T06:43:05.516Z,12.73
2023-03-17T06:45:34.067Z,10.93
2023-03-17T06:48:02.891Z,11.85
2023-03-17T06:50:31.343Z,12.82
2023-03-17T06:52:59.791Z,10.95
2023-03-17T06:55:28.986Z,9.68
2023-03-17T06:58:00.431Z,9.00
2023-03-17T07:00:30.277Z,12.30
2023-03-17T07:05:27.933Z,12.95
2023-03-17T07:07:56.917Z,11.48
2023-03-17T07:10:25.443Z,10.90
2023-03-17T07:12:54.136Z,10.85
2023-03-17T07:15:24.050Z,7.97
2023-03-17T07:17:52.805Z,14.30
2023-03-17T07:20:21.698Z,10.00
2023-03-17T07:22:50.141Z,12.02
2023-03-17T07:25:18.739Z,10.05
2023-03-17T07:27:47.232Z,14.80
2023-03-17T07:30:18.964Z,11.63
2023-03-17T07:32:49.202Z,11.82
2023-03-17T07:35:17.874Z,13.18
2023-03-17T07:37:47.315Z,10.45
2023-03-17T07:40:18.318Z,9.35
2023-03-17T07:42:46.708Z,9.50
2023-03-17T07:45:15.121Z,10.27
2023-03-17T07:47:43.846Z,9.10
2023-03-17T07:50:15.259Z,8.50
2023-03-17T07:52:43.715Z,6.93
2023-03-17T07:55:12.456Z,7.93
2023-03-17T07:57:41.524Z,9.32
2023-03-17T08:00:13.453Z,9.93
2023-03-17T08:02:42.286Z,9.98
2023-03-17T08:05:11.607Z,8.40
2023-03-17T08:07:41.574Z,10.30
2023-03-17T08:10:12.843Z,9.30
2023-03-17T08:12:41.829Z,10.77
2023-03-17T08:15:11.477Z,12.87
2023-03-17T08:17:40.205Z,10.68
2023-03-17T08:20:10.019Z,11.25
2023-03-17T08:25:09.558Z,8.88
2023-03-17T08:27:38.157Z,11.05
2023-03-17T08:30:08.442Z,8.98
2023-03-17T08:32:36.912Z,11.93
2023-03-17T08:35:06.610Z,8.25
2023-03-17T08:37:35.029Z,10.27
2023-03-17T08:40:05.203Z,15.65
2023-03-17T08:42:34.953Z,10.15
2023-03-17T08:45:04.328Z,13.88
2023-03-17T08:47:32.906Z,12.50
2023-03-17T08:50:01.721Z,9.55
2023-03-17T08:52:30.158Z,9.52
2023-03-17T08:54:58.774Z,8.68
2023-03-17T08:57:27.640Z,11.75
2023-03-17T08:59:57.753Z,12.98
2023-03-17T09:02:26.651Z,10.43
2023-03-17T09:04:55.226Z,9.70
2023-03-17T09:07:23.702Z,14.75
2023-03-17T09:09:52.509Z,14.00
2023-03-17T09:12:20.897Z,7.90
2023-03-17T09:14:50.419Z,7.85
2023-03-17T09:17:20.285Z,11.55
2023-03-17T09:19:49.075Z,9.18
2023-03-17T09:22:19.680Z,8.57
2023-03-17T09:24:48.151Z,6.10
2023-03-17T09:27:16.755Z,11.45
2023-03-17T09:29:45.463Z,8.55
2023-03-17T09:32:13.948Z,7.68
2023-03-17T09:34:43.729Z,9.75
2023-03-17T09:37:12.133Z,9.55
2023-03-17T09:39:41.421Z,7.18
2023-03-17T09:42:20.213Z,10.68
2023-03-17T09:45:02.826Z,9.80
2023-03-17T09:47:48.872Z,9.80
2023-03-17T09:50:23.975Z,7.28
2023-03-17T09:52:53.158Z,9.20
2023-03-17T09:55:28.278Z,8.90
2023-03-17T09:57:58.791Z,10.70
2023-03-17T10:00:31.073Z,7.35
2023-03-17T10:03:01.453Z,8.70
2023-03-17T10:05:32.785Z,9.20
2023-03-17T10:08:26.861Z,7.00
2023-03-17T10:11:02.934Z,8.40
2023-03-17T10:13:43.217Z,6.35
2023-03-17T10:16:15.374Z,7.80
2023-03-17T10:18:51.046Z,8.45
2023-03-17T10:21:26.222Z,10.25
2023-03-17T10:23:57.343Z,8.93
2023-03-17T10:26:32.739Z,9.25
2023-03-17T10:29:04.119Z,10.82
2023-03-17T10:31:35.377Z,10.38
2023-03-17T10:34:14.592Z,7.88
2023-03-17T10:36:46.978Z,7.53
2023-03-17T10:39:18.596Z,8.90
2023-03-17T10:41:56.199Z,7.60
2023-03-17T10:44:39.634Z,10.13
2023-03-17T10:47:22.665Z,6.28
2023-03-17T10:49:52.409Z,9.32
2023-03-17T10:52:27.424Z,9.45
2023-03-17T10:54:55.970Z,11.02
2023-03-17T10:57:24.462Z,9.77
2023-03-17T10:59:56.459Z,12.50
2023-03-17T11:02:28.059Z,8.82
2023-03-17T11:05:01.778Z,6.57
2023-03-17T11:07:38.081Z,8.65
2023-03-17T11:10:21.671Z,8.18
2023-03-17T11:12:55.926Z,10.30
2023-03-17T11:15:25.355Z,7.22
2023-03-17T11:17:59.015Z,10.50
2023-03-17T11:20:41.157Z,6.90
2023-03-17T11:23:24.038Z,7.65
2023-03-17T11:26:00.460Z,8.82
2023-03-17T11:28:34.995Z,10.63
2023-03-17T11:31:13.109Z,8.98
2023-03-17T11:33:50.032Z,9.95
2023-03-17T11:36:36.261Z,10.57
2023-03-17T11:39:13.614Z,7.72
2023-03-17T11:41:53.859Z,7.13
2023-03-17T11:44:50.703Z,9.35
2023-03-17T11:47:42.990Z,6.85
2023-03-17T11:50:22.465Z,9.18
2023-03-17T11:53:02.842Z,10.32
2023-03-17T11:55:41.173Z,11.95
2023-03-17T11:58:16.331Z,14.15
2023-03-17T12:00:51.041Z,8.68
2023-03-17T12:03:27.533Z,8.23
2023-03-17T12:06:00.877Z,9.80
2023-03-17T12:08:37.668Z,9.27
2023-03-17T12:11:12.115Z,9.60
2023-03-17T12:13:45.494Z,10.40
2023-03-17T12:16:19.272Z,9.18
2023-03-17T12:18:57.950Z,10.32
2023-03-17T12:21:34.175Z,13.32
2023-03-17T12:24:09.966Z,9.68
2023-03-17T12:26:48.410Z,11.68
2023-03-17T12:29:22.622Z,10.30
2023-03-17T12:31:58.132Z,8.57
2023-03-17T12:34:32.826Z,7.70
2023-03-17T12:37:01.318Z,9.52
2023-03-17T12:39:33.026Z,7.78
2023-03-17T12:42:37.766Z,9.52
2023-03-17T12:45:42.277Z,9.57
2023-03-17T12:48:32.525Z,12.00
2023-03-17T12:51:31.750Z,10.43
2023-03-17T12:54:00.951Z,10.70
2023-03-17T12:56:31.945Z,11.55
2023-03-17T12:59:06.627Z,7.38
2023-03-17T13:01:38.902Z,10.05
2023-03-17T13:04:18.482Z,9.45
2023-03-17T13:06:49.432Z,9.30
2023-03-17T13:09:43.148Z,11.40
2023-03-17T13:12:36.899Z,12.55
2023-03-17T13:15:24.027Z,9.85
2023-03-17T13:17:55.012Z,10.57
2023-03-17T13:20:39.099Z,9.05
2023-03-17T13:23:15.875Z,9.10
2023-03-17T13:25:53.516Z,11.57
2023-03-17T13:28:27.631Z,9.63
2023-03-17T13:31:29.106Z,10.93
2023-03-17T13:34:07.898Z,10.35
2023-03-17T13:36:44.254Z,10.40
2023-03-17T13:39:36.259Z,9.30
2023-03-17T13:42:24.318Z,9.95
2023-03-17T13:45:26.138Z,9.32
2023-03-17T13:47:55.621Z,13.30
2023-03-17T13:50:31.891Z,10.50
2023-03-17T13:53:04.644Z,10.18
2023-03-17T13:55:37.925Z,14.55
2023-03-17T13:58:25.925Z,11.00
2023-03-17T14:01:02.503Z,10.25
2023-03-17T14:03:36.594Z,12.05
2023-03-17T14:06:09.035Z,16.58
2023-03-17T14:08:38.993Z,13.45
2023-03-17T14:11:17.998Z,9.23
2023-03-17T14:13:52.906Z,13.07
2023-03-17T14:16:26.196Z,11.30
2023-03-17T14:18:59.961Z,9.10
2023-03-17T14:21:33.675Z,14.02
2023-03-17T14:24:04.766Z,11.02
2023-03-17T14:26:33.940Z,10.15
2023-03-17T14:29:04.689Z,11.68
2023-03-17T14:31:33.503Z,11.40
2023-03-17T14:34:03.238Z,10.77
2023-03-17T14:36:35.064Z,12.73
2023-03-17T14:39:03.523Z,13.25
2023-03-17T14:41:34.563Z,10.73
2023-03-17T14:44:03.203Z,9.32
2023-03-17T14:46:34.572Z,10.63
2023-03-17T14:49:05.764Z,12.60
2023-03-17T14:51:37.478Z,10.23
2023-03-17T14:54:13.643Z,11.60
2023-03-17T14:56:43.897Z,15.63
2023-03-17T14:59:21.137Z,11.02
2023-03-17T15:01:54.157Z,13.05
2023-03-17T15:04:24.917Z,11.52
2023-03-17T15:06:56.371Z,13.80
2023-03-17T15:09:28.053Z,14.48
2023-03-17T15:12:00.469Z,10.05
2023-03-17T15:14:32.968Z,11.32
2023-03-17T15:17:04.152Z,14.52
2023-03-17T15:19:41.747Z,9.15
2023-03-17T15:22:26.176Z,11.68
2023-03-17T15:25:02.568Z,15.73
2023-03-17T15:27:32.959Z,13.07
2023-03-17T15:30:01.392Z,10.82
2023-03-17T15:32:31.224Z,20.67
2023-03-17T15:37:31.942Z,16.33
2023-03-17T15:40:02.136Z,10.57
2023-03-17T15:42:32.564Z,16.30
2023-03-17T15:45:02.729Z,19.17
2023-03-17T15:47:33.855Z,11.95
2023-03-17T15:50:11.793Z,13.13
2023-03-17T15:52:41.800Z,12.77
2023-03-17T15:57:53.857Z,19.83
2023-03-17T16:00:25.215Z,27.85
2023-03-17T16:02:55.318Z,43.67
2023-03-17T16:05:25.534Z,36.42
2023-03-17T16:07:55.831Z,14.40
2023-03-17T16:10:26.539Z,24.75
2023-03-17T16:12:55.423Z,13.63
2023-03-17T16:15:25.989Z,15.75
2023-03-17T16:17:56.548Z,13.88
2023-03-17T16:20:27.539Z,14.98
2023-03-17T16:22:59.785Z,18.85
2023-03-17T16:25:32.525Z,16.75
2023-03-17T16:28:04.009Z,17.05
2023-03-17T16:30:34.501Z,23.13
2023-03-17T16:33:10.311Z,17.30
2023-03-17T16:35:38.882Z,21.27
2023-03-17T16:38:12.089Z,40.80
2023-03-17T16:40:40.848Z,18.70
2023-03-17T16:43:25.196Z,18.80
2023-03-17T16:45:55.778Z,30.30
2023-03-17T16:48:24.342Z,20.85
2023-03-17T16:50:53.249Z,22.88
2023-03-17T16:53:23.419Z,19.90
2023-03-17T16:55:52.767Z,20.35
2023-03-17T16:58:23.504Z,15.25
2023-03-17T17:00:53.812Z,14.57
2023-03-17T17:03:22.508Z,15.80
2023-03-17T17:05:51.343Z,18.35
2023-03-17T17:08:19.965Z,20.52
2023-03-17T17:10:49.757Z,28.02
2023-03-17T17:13:18.206Z,24.27
2023-03-17T17:15:46.828Z,19.08
2023-03-17T17:18:18.091Z,19.85
2023-03-17T17:20:47.088Z,21.80
2023-03-17T17:23:17.926Z,17.00
2023-03-17T17:25:46.775Z,20.25
2023-03-17T17:28:18.525Z,39.15
2023-03-17T17:30:48.064Z,30.02
2023-03-17T17:33:17.997Z,22.75
2023-03-17T17:38:19.516Z,19.85
2023-03-17T17:40:48.781Z,27.55
2023-03-17T17:43:19.409Z,17.95
2023-03-17T17:45:49.533Z,19.92
2023-03-17T17:48:19.301Z,24.75
2023-03-17T17:50:47.679Z,15.90
2023-03-17T17:53:17.934Z,23.83
2023-03-17T17:55:48.273Z,17.15
2023-03-17T17:58:20.582Z,14.85
2023-03-17T18:00:49.439Z,15.95
2023-03-17T18:03:22.137Z,15.18
2023-03-17T18:05:50.605Z,21.13
2023-03-17T18:08:19.354Z,13.00
2023-03-17T18:10:49.228Z,16.25
2023-03-17T18:13:20.684Z,16.92
2023-03-17T18:18:17.430Z,16.80
2023-03-17T18:20:46.034Z,14.80
2023-03-17T18:23:15.957Z,13.82
2023-03-17T18:28:12.913Z,16.25
2023-03-17T18:30:44.433Z,17.23
2023-03-17T18:33:16.967Z,11.57
2023-03-17T18:35:48.761Z,18.20
2023-03-17T18:38:17.493Z,11.70
2023-03-17T18:40:46.424Z,13.15
2023-03-17T18:43:15.053Z,17.27
2023-03-17T18:45:44.865Z,14.80
2023-03-17T18:50:41.821Z,15.57
2023-03-17T18:53:10.213Z,14.20
2023-03-17T18:55:38.753Z,11.63
2023-03-17T18:58:07.368Z,13.55
2023-03-17T19:00:36.169Z,15.80
2023-03-17T19:03:06.089Z,14.05
2023-03-17T19:05:38.372Z,17.65
2023-03-17T19:08:07.597Z,12.25
2023-03-17T19:10:36.290Z,11.60
2023-03-17T19:13:06.197Z,14.32
2023-03-17T19:18:05.075Z,13.37
2023-03-17T19:20:34.419Z,18.63
2023-03-17T19:23:04.760Z,12.75
2023-03-17T19:25:33.510Z,12.05
2023-03-17T19:28:03.290Z,13.25
2023-03-17T19:30:32.072Z,14.43
2023-03-17T19:33:00.749Z,15.43
2023-03-17T19:35:30.603Z,16.88
2023-03-17T19:40:27.342Z,15.70
2023-03-17T19:42:56.095Z,13.05
2023-03-17T19:45:26.037Z,11.25
2023-03-17T19:47:54.724Z,14.50
2023-03-17T19:50:23.574Z,34.35
2023-03-17T19:52:53.556Z,15.38
2023-03-17T19:55:24.366Z,13.80
2023-03-17T19:57:52.839Z,13.85
2023-03-17T20:00:22.531Z,12.13
2023-03-17T20:02:51.582Z,13.32
2023-03-17T20:05:20.583Z,14.87
2023-03-17T20:07:49.056Z,13.30
2023-03-17T20:10:19.481Z,11.40
2023-03-17T20:12:48.033Z,11.65
2023-03-17T20:15:16.635Z,12.80
2023-03-17T20:17:45.170Z,12.35
2023-03-17T20:20:15.736Z,12.23
2023-03-17T20:22:45.182Z,13.73
2023-03-17T20:25:13.990Z,12.65
2023-03-17T20:27:43.836Z,13.73
2023-03-17T20:32:41.605Z,17.88
2023-03-17T20:35:10.431Z,15.57
2023-03-17T20:37:39.509Z,12.93
2023-03-17T20:40:10.999Z,12.40
2023-03-17T20:42:39.408Z,14.23
2023-03-17T20:45:10.209Z,16.48
2023-03-17T20:47:38.657Z,13.90
2023-03-17T20:50:08.849Z,15.02
2023-03-17T20:52:38.102Z,12.85
2023-03-17T20:55:08.394Z,12.13
2023-03-17T20:57:37.960Z,13.85
2023-03-17T21:00:08.154Z,18.88
2023-03-17T21:02:37.983Z,14.38
2023-03-17T21:07:35.686Z,11.70
2023-03-17T21:10:04.165Z,13.52
2023-03-17T21:12:33.039Z,17.75
2023-03-17T21:15:02.075Z,15.88
2023-03-17T21:17:30.696Z,17.07
2023-03-17T21:20:00.776Z,14.27
2023-03-17T21:22:29.905Z,13.80
2023-03-17T21:24:58.487Z,11.40
2023-03-17T21:27:26.935Z,14.13
2023-03-17T21:29:55.519Z,12.85
2023-03-17T21:32:24.301Z,14.02
2023-03-17T21:34:54.212Z,14.65
2023-03-17T21:39:52.333Z,12.80
2023-03-17T21:42:21.148Z,13.70
2023-03-17T21:44:50.094Z,11.60
2023-03-17T21:47:18.643Z,13.02
2023-03-17T21:49:47.182Z,14.73
2023-03-17T21:52:15.831Z,9.05
2023-03-17T21:54:45.638Z,11.25
2023-03-17T21:59:42.367Z,10.93
2023-03-17T22:02:12.381Z,13.07
2023-03-17T22:04:42.238Z,15.00
2023-03-17T22:09:40.464Z,12.00
2023-03-17T22:12:10.707Z,12.95
2023-03-17T22:14:39.562Z,11.60
2023-03-17T22:17:08.328Z,12.27
2023-03-17T22:19:37.042Z,10.38
2023-03-17T22:22:05.667Z,13.07
2023-03-17T22:24:34.078Z,14.43
2023-03-17T22:27:02.555Z,13.40
2023-03-17T22:29:32.456Z,11.15
2023-03-17T22:34:29.836Z,18.88
2023-03-17T22:36:58.607Z,12.07
2023-03-17T22:39:27.861Z,9.88
2023-03-17T22:41:56.308Z,12.07
2023-03-17T22:44:24.691Z,12.13
2023-03-17T22:46:54.540Z,11.05
2023-03-17T22:51:51.956Z,15.13
2023-03-17T22:54:21.605Z,12.25
2023-03-17T22:56:50.082Z,15.13
2023-03-17T22:59:18.753Z,13.10
2023-03-17T23:01:47.484Z,13.30
2023-03-17T23:04:18.451Z,15.57
2023-03-17T23:06:47.354Z,15.77
2023-03-17T23:09:15.945Z,13.85
2023-03-17T23:11:44.377Z,12.40
2023-03-17T23:14:13.162Z,15.77
2023-03-17T23:16:41.676Z,12.75
2023-03-17T23:19:10.169Z,11.32
2023-03-17T23:21:40.630Z,10.80
2023-03-17T23:24:09.569Z,13.55
2023-03-17T23:26:38.623Z,15.35
2023-03-17T23:29:09.439Z,15.80
2023-03-17T23:31:38.342Z,18.08
2023-03-17T23:34:07.519Z,20.45
2023-03-17T23:36:40.023Z,12.75
2023-03-17T23:39:10.402Z,12.20
2023-03-17T23:41:39.017Z,13.52
2023-03-17T23:44:08.067Z,21.70
2023-03-17T23:46:36.568Z,13.10
2023-03-17T23:49:07.092Z,15.82
2023-03-17T23:51:35.601Z,13.95
2023-03-17T23:54:04.922Z,11.93
2023-03-17T23:56:34.724Z,13.75
2023-03-17T23:59:03.979Z,16.63
